createdAt,value
2017-12-16T00:02:26.954Z,2.40
2017-12-16T00:04:54.528Z,3.03
2017-12-16T00:07:23.582Z,4.43
2017-12-16T00:09:51.141Z,2.92
2017-12-16T00:12:18.725Z,6.10
2017-12-16T00:14:46.310Z,4.75
2017-12-16T00:17:14.669Z,3.67
2017-12-16T00:19:42.243Z,3.37
2017-12-16T00:22:10.552Z,3.90
2017-12-16T00:24:38.133Z,4.35
2017-12-16T00:27:05.684Z,2.40
2017-12-16T00:29:33.262Z,3.33
2017-12-16T00:32:00.829Z,2.62
2017-12-16T00:34:28.396Z,3.00
2017-12-16T00:36:58.163Z,3.15
2017-12-16T00:39:27.870Z,2.65
2017-12-16T00:41:55.433Z,2.78
2017-12-16T00:44:23.007Z,8.13
2017-12-16T00:46:50.582Z,2.20
2017-12-16T00:49:18.131Z,3.78
2017-12-16T00:51:45.724Z,5.30
2017-12-16T00:54:13.269Z,3.15
2017-12-16T00:56:40.819Z,9.38
2017-12-16T00:59:08.390Z,3.70
2017-12-16T01:01:35.947Z,3.05
2017-12-16T01:04:03.550Z,3.05
2017-12-16T01:06:31.131Z,3.25
2017-12-16T01:08:58.706Z,3.83
2017-12-16T01:11:26.244Z,3.47
2017-12-16T01:13:53.821Z,4.32
2017-12-16T01:16:21.390Z,3.15
2017-12-16T01:18:48.966Z,4.07
2017-12-16T01:21:16.534Z,3.15
2017-12-16T01:23:44.100Z,8.88
2017-12-16T01:26:11.674Z,2.75
2017-12-16T01:28:40.003Z,3.00
2017-12-16T01:31:07.595Z,2.08
2017-12-16T01:33:47.103Z,5.85
2017-12-16T01:36:26.544Z,2.85
2017-12-16T01:38:54.098Z,2.55
2017-12-16T01:41:21.668Z,2.85
2017-12-16T01:43:49.252Z,2.40
2017-12-16T01:46:16.807Z,2.05
2017-12-16T01:48:44.404Z,2.67
2017-12-16T01:51:11.976Z,3.95
2017-12-16T01:53:39.553Z,2.03
2017-12-16T01:56:07.110Z,4.10
2017-12-16T01:58:34.690Z,3.50
2017-12-16T02:01:02.236Z,2.53
2017-12-16T02:03:29.797Z,2.12
2017-12-16T02:05:57.367Z,3.00
2017-12-16T02:08:24.927Z,5.75
2017-12-16T02:10:52.501Z,3.42
2017-12-16T02:13:20.066Z,3.55
2017-12-16T02:15:47.632Z,3.50
2017-12-16T02:18:15.197Z,4.35
2017-12-16T02:20:42.772Z,3.40
2017-12-16T02:23:11.138Z,3.58
2017-12-16T02:25:39.496Z,9.82
2017-12-16T02:28:07.074Z,2.35
2017-12-16T02:30:35.417Z,2.83
2017-12-16T02:33:03.032Z,1.90
2017-12-16T02:35:31.373Z,4.40
2017-12-16T02:37:58.940Z,3.58
2017-12-16T02:40:26.518Z,2.67
2017-12-16T02:42:54.845Z,3.00
2017-12-16T02:45:22.395Z,2.70
2017-12-16T02:47:49.985Z,4.78
2017-12-16T02:50:17.529Z,2.47
2017-12-16T02:52:45.078Z,8.32
2017-12-16T02:55:12.670Z,2.42
2017-12-16T02:57:40.219Z,2.65
2017-12-16T03:00:07.801Z,3.15
2017-12-16T03:02:35.355Z,3.15
2017-12-16T03:05:02.920Z,3.45
2017-12-16T03:07:30.501Z,3.53
2017-12-16T03:09:58.074Z,2.62
2017-12-16T03:12:25.625Z,2.72
2017-12-16T03:14:53.180Z,3.35
2017-12-16T03:17:21.516Z,3.08
2017-12-16T03:19:49.097Z,2.95
2017-12-16T03:22:16.657Z,9.10
2017-12-16T03:24:44.224Z,6.12
2017-12-16T03:27:12.564Z,5.62
2017-12-16T03:29:40.111Z,3.80
2017-12-16T03:32:07.681Z,7.22
2017-12-16T03:34:35.364Z,5.85
2017-12-16T03:37:02.978Z,4.10
2017-12-16T03:39:30.533Z,3.62
2017-12-16T03:41:58.098Z,5.25
2017-12-16T03:44:25.684Z,3.17
2017-12-16T03:46:53.232Z,5.37
2017-12-16T03:49:20.788Z,3.50
2017-12-16T03:51:48.377Z,5.75
2017-12-16T03:54:15.928Z,14.07
2017-12-16T03:56:43.494Z,10.73
2017-12-16T03:59:11.074Z,4.97
2017-12-16T04:01:38.660Z,6.20
2017-12-16T04:04:06.242Z,3.00
2017-12-16T04:06:33.990Z,4.22
2017-12-16T04:09:01.567Z,4.85
2017-12-16T04:11:29.124Z,3.15
2017-12-16T04:13:56.709Z,3.70
2017-12-16T04:16:24.265Z,3.42
2017-12-16T04:18:51.816Z,3.60
2017-12-16T04:21:19.396Z,3.80
2017-12-16T04:23:46.954Z,4.20
2017-12-16T04:26:14.506Z,5.30
2017-12-16T04:28:42.102Z,4.15
2017-12-16T04:31:10.456Z,5.00
2017-12-16T04:33:38.007Z,3.70
2017-12-16T04:36:06.359Z,5.15
2017-12-16T04:38:33.919Z,2.87
2017-12-16T04:41:01.481Z,4.18
2017-12-16T04:43:29.069Z,3.65
2017-12-16T04:45:56.662Z,3.10
2017-12-16T04:48:25.035Z,6.80
2017-12-16T04:50:53.373Z,3.60
2017-12-16T04:53:20.933Z,5.32
2017-12-16T04:55:48.487Z,3.62
2017-12-16T04:58:16.063Z,3.67
2017-12-16T05:00:43.624Z,2.75
2017-12-16T05:03:13.337Z,3.05
2017-12-16T05:05:40.903Z,3.87
2017-12-16T05:08:08.509Z,6.60
2017-12-16T05:10:36.038Z,3.55
2017-12-16T05:13:04.414Z,3.50
2017-12-16T05:15:32.729Z,6.87
2017-12-16T05:18:00.304Z,6.30
2017-12-16T05:20:27.879Z,5.43
2017-12-16T05:22:55.424Z,3.37
2017-12-16T05:25:22.966Z,3.40
2017-12-16T05:27:50.554Z,3.22
2017-12-16T05:30:18.125Z,2.83
2017-12-16T05:32:45.677Z,3.75
2017-12-16T05:35:13.268Z,4.50
2017-12-16T05:37:40.815Z,3.53
2017-12-16T05:40:08.383Z,4.90
2017-12-16T05:42:35.988Z,4.70
2017-12-16T05:45:03.573Z,3.45
2017-12-16T05:47:31.114Z,3.40
2017-12-16T05:49:58.691Z,3.30
2017-12-16T05:52:26.272Z,2.12
2017-12-16T05:54:53.848Z,3.50
2017-12-16T05:57:22.198Z,3.05
2017-12-16T05:59:49.751Z,2.40
2017-12-16T06:02:17.317Z,3.20
2017-12-16T06:04:45.694Z,2.67
2017-12-16T06:07:13.260Z,3.95
2017-12-16T06:09:40.814Z,3.90
2017-12-16T06:12:08.381Z,2.70
2017-12-16T06:14:35.940Z,3.45
2017-12-16T06:17:03.522Z,7.85
2017-12-16T06:19:31.890Z,2.42
2017-12-16T06:21:59.436Z,4.47
2017-12-16T06:24:28.487Z,4.68
2017-12-16T06:26:56.074Z,2.70
2017-12-16T06:29:23.635Z,5.10
2017-12-16T06:31:51.962Z,5.60
2017-12-16T06:34:20.296Z,5.28
2017-12-16T06:36:47.839Z,5.55
2017-12-16T06:39:15.396Z,5.03
2017-12-16T06:41:42.990Z,7.57
2017-12-16T06:44:10.614Z,10.57
2017-12-16T06:46:38.189Z,12.70
2017-12-16T06:49:05.803Z,16.70
2017-12-16T06:51:34.112Z,10.05
2017-12-16T06:54:01.676Z,17.37
2017-12-16T06:56:29.288Z,17.12
2017-12-16T06:58:58.270Z,13.93
2017-12-16T07:01:26.598Z,11.32
2017-12-16T07:03:54.946Z,19.37
2017-12-16T07:06:24.393Z,11.57
2017-12-16T07:08:52.934Z,11.32
2017-12-16T07:11:21.252Z,9.57
2017-12-16T07:13:48.861Z,5.90
2017-12-16T07:16:17.245Z,4.97
2017-12-16T07:18:45.596Z,15.27
2017-12-16T07:21:13.140Z,6.20
2017-12-16T07:23:40.701Z,6.62
2017-12-16T07:26:08.289Z,5.87
2017-12-16T07:28:35.827Z,10.35
2017-12-16T07:31:03.396Z,6.43
2017-12-16T07:33:30.960Z,7.20
2017-12-16T07:35:59.322Z,8.40
2017-12-16T07:38:26.892Z,8.93
2017-12-16T07:40:54.475Z,5.55
2017-12-16T07:43:22.890Z,7.30
2017-12-16T07:45:50.449Z,6.62
2017-12-16T07:48:18.045Z,6.37
2017-12-16T07:50:45.605Z,9.35
2017-12-16T07:53:14.014Z,5.10
2017-12-16T07:55:42.763Z,6.12
2017-12-16T07:58:12.100Z,9.85
2017-12-16T08:00:41.762Z,4.62
2017-12-16T08:03:10.698Z,5.53
2017-12-16T08:05:38.831Z,5.32
2017-12-16T08:08:06.922Z,6.37
2017-12-16T08:10:34.497Z,4.95
2017-12-16T08:13:02.049Z,8.38
2017-12-16T08:15:29.592Z,7.55
2017-12-16T08:17:57.168Z,11.07
2017-12-16T08:20:24.727Z,5.20
2017-12-16T08:22:52.298Z,3.25
2017-12-16T08:25:19.875Z,3.92
2017-12-16T08:27:48.189Z,4.55
2017-12-16T08:30:16.133Z,5.30
2017-12-16T08:32:43.715Z,4.43
2017-12-16T08:35:11.260Z,4.60
2017-12-16T08:37:38.803Z,6.80
2017-12-16T08:40:06.376Z,6.65
2017-12-16T08:42:33.942Z,4.12
2017-12-16T08:45:01.505Z,14.68
2017-12-16T08:47:29.083Z,8.57
2017-12-16T08:49:56.690Z,5.15
2017-12-16T08:52:24.295Z,8.05
2017-12-16T08:54:51.864Z,9.00
2017-12-16T08:57:19.413Z,7.50
2017-12-16T08:59:46.960Z,10.02
2017-12-16T09:02:14.566Z,9.30
2017-12-16T09:04:42.130Z,16.62
2017-12-16T09:07:09.686Z,16.98
2017-12-16T09:09:37.265Z,13.10
2017-12-16T09:12:05.580Z,13.48
2017-12-16T09:14:33.133Z,22.25
2017-12-16T09:17:00.729Z,13.90
2017-12-16T09:19:28.270Z,9.90
2017-12-16T09:21:55.822Z,6.00
2017-12-16T09:24:23.409Z,4.45
2017-12-16T09:26:51.736Z,8.30
2017-12-16T09:29:19.285Z,4.93
2017-12-16T09:31:47.625Z,4.45
2017-12-16T09:34:15.937Z,3.15
2017-12-16T09:36:43.502Z,2.85
2017-12-16T09:39:11.846Z,3.47
2017-12-16T09:41:39.426Z,3.12
2017-12-16T09:44:07.759Z,4.15
2017-12-16T09:46:35.353Z,4.10
2017-12-16T09:49:02.911Z,2.53
2017-12-16T09:51:30.470Z,2.33
2017-12-16T09:53:58.047Z,1.80
2017-12-16T09:56:26.366Z,4.15
2017-12-16T09:58:53.939Z,3.62
2017-12-16T10:01:21.509Z,1.45
2017-12-16T10:03:49.067Z,2.12
2017-12-16T10:06:16.656Z,2.45
2017-12-16T10:08:45.004Z,2.25
2017-12-16T10:11:12.581Z,2.78
2017-12-16T10:13:40.134Z,4.35
2017-12-16T10:16:07.720Z,2.87
2017-12-16T10:18:36.024Z,1.85
2017-12-16T10:21:03.581Z,2.08
2017-12-16T10:23:31.185Z,2.20
2017-12-16T10:25:58.742Z,2.87
2017-12-16T10:28:26.320Z,6.07
2017-12-16T10:30:53.897Z,3.58
2017-12-16T10:33:22.211Z,5.22
2017-12-16T10:35:49.779Z,5.70
2017-12-16T10:38:17.355Z,2.50
2017-12-16T10:40:44.916Z,2.25
2017-12-16T10:43:12.507Z,2.78
2017-12-16T10:45:40.853Z,3.08
2017-12-16T10:48:08.405Z,7.03
2017-12-16T10:50:35.998Z,11.50
2017-12-16T10:53:03.582Z,14.05
2017-12-16T10:55:31.895Z,10.20
2017-12-16T10:57:59.449Z,4.43
2017-12-16T11:00:32.763Z,4.00
2017-12-16T11:03:00.316Z,2.37
2017-12-16T11:05:27.871Z,2.67
2017-12-16T11:07:55.446Z,2.00
2017-12-16T11:10:22.989Z,1.70
2017-12-16T11:12:50.567Z,1.60
2017-12-16T11:15:18.138Z,1.48
2017-12-16T11:17:45.688Z,6.47
2017-12-16T11:20:13.245Z,2.90
2017-12-16T11:22:40.829Z,3.12
2017-12-16T11:25:08.382Z,1.58
2017-12-16T11:27:35.925Z,1.30
2017-12-16T11:30:03.538Z,1.80
2017-12-16T11:32:31.085Z,1.80
2017-12-16T11:34:59.395Z,1.95
2017-12-16T11:37:26.978Z,1.55
2017-12-16T11:39:54.534Z,1.70
2017-12-16T11:42:22.102Z,1.77
2017-12-16T11:44:49.686Z,1.70
2017-12-16T11:47:18.590Z,3.15
2017-12-16T11:49:46.908Z,1.15
2017-12-16T11:52:14.478Z,2.47
2017-12-16T11:54:42.032Z,1.40
2017-12-16T11:57:09.610Z,2.72
2017-12-16T11:59:37.180Z,1.92
2017-12-16T12:04:38.600Z,1.60
2017-12-16T12:07:06.154Z,1.33
2017-12-16T12:09:33.731Z,1.05
2017-12-16T12:12:01.323Z,1.52
2017-12-16T12:14:28.886Z,1.75
2017-12-16T12:16:56.447Z,1.00
2017-12-16T12:19:24.029Z,1.45
2017-12-16T12:21:52.348Z,1.23
2017-12-16T12:24:19.895Z,1.27
2017-12-16T12:26:47.490Z,2.33
2017-12-16T12:29:15.066Z,1.55
2017-12-16T12:31:42.612Z,1.30
2017-12-16T12:34:10.204Z,1.65
2017-12-16T12:36:38.527Z,1.10
2017-12-16T12:39:06.069Z,1.30
2017-12-16T12:41:33.643Z,1.05
2017-12-16T12:44:01.194Z,1.15
2017-12-16T12:46:28.736Z,1.40
2017-12-16T12:48:56.307Z,1.02
2017-12-16T12:51:23.858Z,1.50
2017-12-16T12:53:51.406Z,1.85
2017-12-16T12:56:19.741Z,1.23
2017-12-16T12:58:47.313Z,1.20
2017-12-16T13:01:14.852Z,1.17
2017-12-16T13:03:42.419Z,1.40
2017-12-16T13:06:09.977Z,1.52
2017-12-16T13:08:37.522Z,1.55
2017-12-16T13:11:05.097Z,1.50
2017-12-16T13:13:32.641Z,1.42
2017-12-16T13:16:00.223Z,1.20
2017-12-16T13:18:27.854Z,1.70
2017-12-16T13:20:55.397Z,0.82
2017-12-16T13:23:22.947Z,2.28
2017-12-16T13:25:50.516Z,0.90
2017-12-16T13:28:18.089Z,1.12
2017-12-16T13:30:45.633Z,0.95
2017-12-16T13:33:13.206Z,1.37
2017-12-16T13:35:40.753Z,0.90
2017-12-16T13:38:08.309Z,1.20
2017-12-16T13:40:35.897Z,1.10
2017-12-16T13:43:03.444Z,1.00
2017-12-16T13:45:31.014Z,1.48
2017-12-16T13:47:58.577Z,1.80
2017-12-16T13:50:26.158Z,1.25
2017-12-16T13:52:53.696Z,1.10
2017-12-16T13:55:21.306Z,1.23
2017-12-16T13:57:48.890Z,1.10
2017-12-16T14:00:16.457Z,1.17
2017-12-16T14:02:44.024Z,1.05
2017-12-16T14:05:11.593Z,1.12
2017-12-16T14:07:39.151Z,3.20
2017-12-16T14:10:06.731Z,1.40
2017-12-16T14:12:34.293Z,1.60
2017-12-16T14:15:01.833Z,1.30
2017-12-16T14:17:29.432Z,3.03
2017-12-16T14:19:56.987Z,1.83
2017-12-16T14:22:25.328Z,1.48
2017-12-16T14:24:52.921Z,4.05
2017-12-16T14:27:20.482Z,18.20
2017-12-16T14:29:48.037Z,6.72
2017-12-16T14:32:15.628Z,8.23
2017-12-16T14:34:43.938Z,2.55
2017-12-16T14:37:11.486Z,2.10
2017-12-16T14:39:39.108Z,2.10
2017-12-16T14:42:07.455Z,1.80
2017-12-16T14:44:35.001Z,1.80
2017-12-16T14:47:02.590Z,6.47
2017-12-16T14:49:30.134Z,1.95
2017-12-16T14:51:57.694Z,2.97
2017-12-16T14:54:25.283Z,3.33
2017-12-16T14:56:53.613Z,2.10
2017-12-16T14:59:21.182Z,3.10
2017-12-16T15:01:48.753Z,2.80
2017-12-16T15:04:16.307Z,4.03
2017-12-16T15:06:43.856Z,2.40
2017-12-16T15:09:11.444Z,4.07
2017-12-16T15:11:39.049Z,3.42
2017-12-16T15:14:06.622Z,3.92
2017-12-16T15:16:34.195Z,8.13
2017-12-16T15:19:01.761Z,5.60
2017-12-16T15:21:29.343Z,6.50
2017-12-16T15:23:56.910Z,4.53
2017-12-16T15:26:25.243Z,5.35
2017-12-16T15:28:52.813Z,5.70
2017-12-16T15:31:20.390Z,6.62
2017-12-16T15:33:47.961Z,7.70
2017-12-16T15:36:15.517Z,6.57
2017-12-16T15:38:43.106Z,5.57
2017-12-16T15:41:11.430Z,11.48
2017-12-16T15:43:38.983Z,7.15
2017-12-16T15:46:07.409Z,10.55
2017-12-16T15:48:34.953Z,9.27
2017-12-16T15:51:02.517Z,7.37
2017-12-16T15:53:30.087Z,9.75
2017-12-16T15:55:58.427Z,9.90
2017-12-16T15:58:25.987Z,13.48
2017-12-16T16:00:53.571Z,10.80
2017-12-16T16:03:21.132Z,9.57
2017-12-16T16:05:48.752Z,10.00
2017-12-16T16:08:17.078Z,10.48
2017-12-16T16:10:44.656Z,8.93
2017-12-16T16:13:12.989Z,15.18
2017-12-16T16:15:40.555Z,8.65
2017-12-16T16:18:08.114Z,14.27
2017-12-16T16:20:35.684Z,7.95
2017-12-16T16:23:03.264Z,7.55
2017-12-16T16:25:31.575Z,7.57
2017-12-16T16:27:59.149Z,8.95
2017-12-16T16:30:26.720Z,9.50
2017-12-16T16:32:54.280Z,9.57
2017-12-16T16:35:21.840Z,16.77
2017-12-16T16:37:49.422Z,13.90
2017-12-16T16:40:17.010Z,11.27
2017-12-16T16:42:45.328Z,10.63
2017-12-16T16:45:12.914Z,12.25
2017-12-16T16:47:40.486Z,12.40
2017-12-16T16:50:08.044Z,13.75
2017-12-16T16:52:35.649Z,15.25
2017-12-16T16:55:03.216Z,11.88
2017-12-16T16:57:30.783Z,13.93
2017-12-16T16:59:58.373Z,21.20
2017-12-16T17:02:25.927Z,14.55
2017-12-16T17:04:53.476Z,14.48
2017-12-16T17:07:21.082Z,14.45
2017-12-16T17:09:49.397Z,15.90
2017-12-16T17:12:16.951Z,13.45
2017-12-16T17:14:44.559Z,17.35
2017-12-16T17:17:12.135Z,68.60
2017-12-16T17:19:40.466Z,135.50
2017-12-16T17:22:08.091Z,32.58
2017-12-16T17:24:35.649Z,86.40
2017-12-16T17:27:03.214Z,28.75
2017-12-16T17:29:31.572Z,17.42
2017-12-16T17:31:59.912Z,14.18
2017-12-16T17:34:27.496Z,15.38
2017-12-16T17:36:55.094Z,22.87
2017-12-16T17:39:22.654Z,10.35
2017-12-16T17:41:50.226Z,15.52
2017-12-16T17:44:17.823Z,14.02
2017-12-16T17:46:45.390Z,13.60
2017-12-16T17:49:12.957Z,15.98
2017-12-16T17:51:40.537Z,16.10
2017-12-16T17:54:08.854Z,16.00
2017-12-16T17:56:36.400Z,14.25
2017-12-16T17:59:03.994Z,15.93
2017-12-16T18:01:31.565Z,15.95
2017-12-16T18:03:59.131Z,16.80
2017-12-16T18:06:26.752Z,14.90
2017-12-16T18:08:54.296Z,12.63
2017-12-16T18:11:21.850Z,18.20
2017-12-16T18:13:49.451Z,17.75
2017-12-16T18:16:17.783Z,13.88
2017-12-16T18:18:45.346Z,14.05
2017-12-16T18:21:12.944Z,18.25
2017-12-16T18:23:40.505Z,16.77
2017-12-16T18:26:08.074Z,15.00
2017-12-16T18:28:35.683Z,16.05
2017-12-16T18:31:03.239Z,16.15
2017-12-16T18:33:30.819Z,22.15
2017-12-16T18:35:58.404Z,17.62
2017-12-16T18:38:25.949Z,18.27
2017-12-16T18:40:53.512Z,12.80
2017-12-16T18:43:21.092Z,14.87
2017-12-16T18:45:48.650Z,19.30
2017-12-16T18:48:16.208Z,16.75
2017-12-16T18:50:43.832Z,16.30
2017-12-16T18:53:11.408Z,13.25
2017-12-16T18:55:38.958Z,15.80
2017-12-16T18:58:06.547Z,17.33
2017-12-16T19:00:34.129Z,16.12
2017-12-16T19:03:01.794Z,15.73
2017-12-16T19:05:30.140Z,17.08
2017-12-16T19:07:57.696Z,17.77
2017-12-16T19:10:25.264Z,17.12
2017-12-16T19:12:52.842Z,18.52
2017-12-16T19:15:20.395Z,18.75
2017-12-16T19:17:47.962Z,18.33
2017-12-16T19:20:15.552Z,16.90
2017-12-16T19:22:43.133Z,15.30
2017-12-16T19:25:10.688Z,20.35
2017-12-16T19:27:38.289Z,18.20
2017-12-16T19:30:05.883Z,18.10
2017-12-16T19:32:34.211Z,19.33
2017-12-16T19:35:01.784Z,22.50
2017-12-16T19:37:29.340Z,19.73
2017-12-16T19:39:56.891Z,20.50
2017-12-16T19:42:24.486Z,21.90
2017-12-16T19:44:52.034Z,17.52
2017-12-16T19:47:19.588Z,17.40
2017-12-16T19:49:47.192Z,18.92
2017-12-16T19:52:14.749Z,15.20
2017-12-16T19:54:43.071Z,15.68
2017-12-16T19:57:10.652Z,15.52
2017-12-16T19:59:38.202Z,13.85
2017-12-16T20:02:05.752Z,13.25
2017-12-16T20:04:33.597Z,16.50
2017-12-16T20:07:01.157Z,15.05
2017-12-16T20:09:28.715Z,15.23
2017-12-16T20:11:56.287Z,14.13
2017-12-16T20:14:23.858Z,13.60
2017-12-16T20:16:51.405Z,15.27
2017-12-16T20:19:18.999Z,15.18
2017-12-16T20:21:46.548Z,16.83
2017-12-16T20:24:14.118Z,12.10
2017-12-16T20:26:41.728Z,12.68
2017-12-16T20:29:09.286Z,14.70
2017-12-16T20:31:36.833Z,15.07
2017-12-16T20:34:04.416Z,12.30
2017-12-16T20:36:31.972Z,12.45
2017-12-16T20:38:59.549Z,16.87
2017-12-16T20:41:27.134Z,14.73
2017-12-16T20:43:54.696Z,15.60
2017-12-16T20:46:22.254Z,13.82
2017-12-16T20:48:49.835Z,14.45
2017-12-16T20:51:17.400Z,14.15
2017-12-16T20:53:45.736Z,11.68
2017-12-16T20:56:13.313Z,11.63
2017-12-16T20:58:40.880Z,11.95
2017-12-16T21:01:09.210Z,9.10
2017-12-16T21:03:36.788Z,10.18
2017-12-16T21:06:04.336Z,12.63
2017-12-16T21:08:31.871Z,11.25
2017-12-16T21:10:59.442Z,9.38
2017-12-16T21:13:26.993Z,10.68
2017-12-16T21:15:54.542Z,12.82
2017-12-16T21:18:22.130Z,13.35
2017-12-16T21:20:49.685Z,13.38
2017-12-16T21:23:17.229Z,12.85
2017-12-16T21:25:44.794Z,13.48
2017-12-16T21:28:12.347Z,13.13
2017-12-16T21:30:39.919Z,12.40
2017-12-16T21:33:07.487Z,10.80
2017-12-16T21:35:35.051Z,11.18
2017-12-16T21:38:02.610Z,11.68
2017-12-16T21:40:30.180Z,9.48
2017-12-16T21:42:57.747Z,13.77
2017-12-16T21:45:25.305Z,10.90
2017-12-16T21:47:52.893Z,8.98
2017-12-16T21:50:21.214Z,9.55
2017-12-16T21:52:48.765Z,11.63
2017-12-16T21:55:16.356Z,10.80
2017-12-16T21:57:43.893Z,7.35
2017-12-16T22:00:11.441Z,8.25
2017-12-16T22:02:39.036Z,11.57
2017-12-16T22:05:06.590Z,8.23
2017-12-16T22:10:08.157Z,8.27
2017-12-16T22:12:35.712Z,9.13
2017-12-16T22:15:03.261Z,10.20
2017-12-16T22:17:30.837Z,10.48
2017-12-16T22:19:58.394Z,10.43
2017-12-16T22:22:25.961Z,9.77
2017-12-16T22:24:53.537Z,9.85
2017-12-16T22:27:21.090Z,8.45
2017-12-16T22:29:48.642Z,8.38
2017-12-16T22:32:16.217Z,6.82
2017-12-16T22:34:43.767Z,6.55
2017-12-16T22:37:11.320Z,7.20
2017-12-16T22:39:38.889Z,6.47
2017-12-16T22:42:06.450Z,7.95
2017-12-16T22:47:05.749Z,8.35
2017-12-16T22:49:33.297Z,9.52
2017-12-16T22:52:00.868Z,10.40
2017-12-16T22:54:28.469Z,6.65
2017-12-16T22:56:56.784Z,6.45
2017-12-16T22:59:24.346Z,7.72
2017-12-16T23:01:51.910Z,8.15
2017-12-16T23:04:19.463Z,5.00
2017-12-16T23:06:47.003Z,5.68
2017-12-16T23:09:14.581Z,7.43
2017-12-16T23:11:42.174Z,5.40
2017-12-16T23:14:09.814Z,6.85
2017-12-16T23:16:37.390Z,5.12
2017-12-16T23:19:04.984Z,5.00
2017-12-16T23:21:33.306Z,5.00
2017-12-16T23:24:00.883Z,4.80
2017-12-16T23:26:28.436Z,7.32
2017-12-16T23:28:55.990Z,7.47
2017-12-16T23:31:23.565Z,8.38
2017-12-16T23:33:51.142Z,6.70
2017-12-16T23:36:18.693Z,7.80
2017-12-16T23:38:46.285Z,8.25
2017-12-16T23:41:14.602Z,6.97
2017-12-16T23:43:42.194Z,10.63
2017-12-16T23:46:09.781Z,10.23
2017-12-16T23:48:38.109Z,9.15
2017-12-16T23:51:05.660Z,10.93
2017-12-16T23:53:33.222Z,9.70
2017-12-16T23:56:00.773Z,9.65
2017-12-16T23:58:28.336Z,8.10
